sensor_id;sensor_type;location;lat;lon;timestamp;P1;durP1;ratioP1;P2;durP2;ratioP2
43152;SDS011;28756;49.064;9.290;2023-09-19T00:00:41;1.08;;;0.50;;
43152;SDS011;28756;49.064;9.290;2023-09-19T00:03:09;1.92;;;0.40;;
43152;SDS011;28756;49.064;9.290;2023-09-19T00:05:39;0.68;;;0.40;;
43152;SDS011;28756;49.064;9.290;2023-09-19T00:08:05;1.80;;;0.65;;
43152;SDS011;28756;49.064;9.290;2023-09-19T00:10:31;0.55;;;0.43;;
43152;SDS011;28756;49.064;9.290;2023-09-19T00:13:04;1.27;;;0.43;;
43152;SDS011;28756;49.064;9.290;2023-09-19T00:15:30;1.55;;;0.57;;
43152;SDS011;28756;49.064;9.290;2023-09-19T00:18:04;0.60;;;0.50;;
43152;SDS011;28756;49.064;9.290;2023-09-19T00:20:31;0.93;;;0.60;;
43152;SDS011;28756;49.064;9.290;2023-09-19T00:22:59;0.82;;;0.63;;
43152;SDS011;28756;49.064;9.290;2023-09-19T00:25:33;1.15;;;0.60;;
43152;SDS011;28756;49.064;9.290;2023-09-19T00:28:06;1.52;;;0.55;;
43152;SDS011;28756;49.064;9.290;2023-09-19T00:30:32;0.98;;;0.45;;
43152;SDS011;28756;49.064;9.290;2023-09-19T00:32:59;1.17;;;0.43;;
43152;SDS011;28756;49.064;9.290;2023-09-19T00:35:26;1.90;;;0.60;;
43152;SDS011;28756;49.064;9.290;2023-09-19T00:37:56;0.60;;;0.50;;
43152;SDS011;28756;49.064;9.290;2023-09-19T00:40:21;0.82;;;0.60;;
43152;SDS011;28756;49.064;9.290;2023-09-19T00:42:47;0.73;;;0.43;;
43152;SDS011;28756;49.064;9.290;2023-09-19T00:45:15;0.68;;;0.50;;
43152;SDS011;28756;49.064;9.290;2023-09-19T00:47:44;0.77;;;0.60;;
43152;SDS011;28756;49.064;9.290;2023-09-19T00:50:17;1.27;;;0.63;;
43152;SDS011;28756;49.064;9.290;2023-09-19T00:52:46;0.90;;;0.57;;
43152;SDS011;28756;49.064;9.290;2023-09-19T00:55:14;0.75;;;0.50;;
43152;SDS011;28756;49.064;9.290;2023-09-19T00:57:41;1.27;;;0.50;;
43152;SDS011;28756;49.064;9.290;2023-09-19T01:00:09;1.60;;;0.60;;
43152;SDS011;28756;49.064;9.290;2023-09-19T01:02:40;0.52;;;0.50;;
43152;SDS011;28756;49.064;9.290;2023-09-19T01:05:10;2.75;;;0.70;;
43152;SDS011;28756;49.064;9.290;2023-09-19T01:07:37;1.95;;;0.60;;
43152;SDS011;28756;49.064;9.290;2023-09-19T01:10:07;0.95;;;0.60;;
43152;SDS011;28756;49.064;9.290;2023-09-19T01:29:48;1.05;;;0.50;;
43152;SDS011;28756;49.064;9.290;2023-09-19T01:32:21;1.70;;;0.70;;
43152;SDS011;28756;49.064;9.290;2023-09-19T01:34:51;0.77;;;0.60;;
43152;SDS011;28756;49.064;9.290;2023-09-19T01:37:29;1.02;;;0.60;;
43152;SDS011;28756;49.064;9.290;2023-09-19T01:40:03;2.42;;;1.02;;
43152;SDS011;28756;49.064;9.290;2023-09-19T01:42:54;1.17;;;0.70;;
43152;SDS011;28756;49.064;9.290;2023-09-19T01:51:26;1.45;;;0.60;;
43152;SDS011;28756;49.064;9.290;2023-09-19T01:54:11;1.42;;;0.70;;
43152;SDS011;28756;49.064;9.290;2023-09-19T01:56:52;2.05;;;0.73;;
43152;SDS011;28756;49.064;9.290;2023-09-19T01:59:54;1.13;;;0.57;;
43152;SDS011;28756;49.064;9.290;2023-09-19T02:02:31;2.45;;;0.80;;
43152;SDS011;28756;49.064;9.290;2023-09-19T02:05:05;1.05;;;0.70;;
43152;SDS011;28756;49.064;9.290;2023-09-19T02:07:31;2.85;;;0.80;;
43152;SDS011;28756;49.064;9.290;2023-09-19T02:09:58;0.85;;;0.60;;
43152;SDS011;28756;49.064;9.290;2023-09-19T02:12:25;2.28;;;0.65;;
43152;SDS011;28756;49.064;9.290;2023-09-19T02:14:51;2.03;;;0.80;;
43152;SDS011;28756;49.064;9.290;2023-09-19T02:17:17;1.58;;;0.70;;
43152;SDS011;28756;49.064;9.290;2023-09-19T02:19:43;2.60;;;0.70;;
43152;SDS011;28756;49.064;9.290;2023-09-19T02:22:08;2.42;;;0.80;;
43152;SDS011;28756;49.064;9.290;2023-09-19T02:24:35;1.92;;;0.80;;
43152;SDS011;28756;49.064;9.290;2023-09-19T02:27:04;0.90;;;0.70;;
43152;SDS011;28756;49.064;9.290;2023-09-19T02:29:30;1.58;;;0.60;;
43152;SDS011;28756;49.064;9.290;2023-09-19T02:31:57;2.80;;;0.88;;
43152;SDS011;28756;49.064;9.290;2023-09-19T02:34:23;1.33;;;0.50;;
43152;SDS011;28756;49.064;9.290;2023-09-19T02:36:50;1.10;;;0.70;;
43152;SDS011;28756;49.064;9.290;2023-09-19T02:39:18;1.02;;;0.75;;
43152;SDS011;28756;49.064;9.290;2023-09-19T02:41:44;1.10;;;0.60;;
43152;SDS011;28756;49.064;9.290;2023-09-19T02:44:11;1.88;;;0.85;;
43152;SDS011;28756;49.064;9.290;2023-09-19T02:46:37;2.20;;;0.60;;
43152;SDS011;28756;49.064;9.290;2023-09-19T02:49:03;1.10;;;0.70;;
43152;SDS011;28756;49.064;9.290;2023-09-19T02:51:32;4.10;;;0.80;;
43152;SDS011;28756;49.064;9.290;2023-09-19T02:53:59;1.58;;;0.80;;
43152;SDS011;28756;49.064;9.290;2023-09-19T02:56:25;0.90;;;0.55;;
43152;SDS011;28756;49.064;9.290;2023-09-19T02:58:51;1.25;;;0.63;;
43152;SDS011;28756;49.064;9.290;2023-09-19T03:01:18;1.13;;;0.80;;
43152;SDS011;28756;49.064;9.290;2023-09-19T03:03:44;1.25;;;0.70;;
43152;SDS011;28756;49.064;9.290;2023-09-19T03:06:11;0.90;;;0.70;;
43152;SDS011;28756;49.064;9.290;2023-09-19T03:08:38;1.50;;;0.80;;
43152;SDS011;28756;49.064;9.290;2023-09-19T03:11:05;1.60;;;0.75;;
43152;SDS011;28756;49.064;9.290;2023-09-19T03:13:33;2.75;;;1.15;;
43152;SDS011;28756;49.064;9.290;2023-09-19T03:16:01;1.23;;;0.70;;
43152;SDS011;28756;49.064;9.290;2023-09-19T03:18:30;1.70;;;0.80;;
43152;SDS011;28756;49.064;9.290;2023-09-19T03:20:56;1.35;;;0.70;;
43152;SDS011;28756;49.064;9.290;2023-09-19T03:23:25;1.50;;;0.70;;
43152;SDS011;28756;49.064;9.290;2023-09-19T03:25:52;1.77;;;1.25;;
43152;SDS011;28756;49.064;9.290;2023-09-19T03:28:19;2.28;;;1.30;;
43152;SDS011;28756;49.064;9.290;2023-09-19T03:30:46;2.83;;;0.98;;
43152;SDS011;28756;49.064;9.290;2023-09-19T03:33:31;1.20;;;0.93;;
43152;SDS011;28756;49.064;9.290;2023-09-19T03:35:58;1.63;;;0.80;;
43152;SDS011;28756;49.064;9.290;2023-09-19T03:38:24;0.90;;;0.60;;
43152;SDS011;28756;49.064;9.290;2023-09-19T03:40:51;0.80;;;0.60;;
43152;SDS011;28756;49.064;9.290;2023-09-19T03:43:17;0.93;;;0.70;;
43152;SDS011;28756;49.064;9.290;2023-09-19T03:45:43;1.15;;;0.77;;
43152;SDS011;28756;49.064;9.290;2023-09-19T03:48:09;1.20;;;0.80;;
43152;SDS011;28756;49.064;9.290;2023-09-19T03:50:36;1.55;;;0.90;;
43152;SDS011;28756;49.064;9.290;2023-09-19T03:53:02;2.70;;;0.80;;
43152;SDS011;28756;49.064;9.290;2023-09-19T03:55:28;3.47;;;0.90;;
43152;SDS011;28756;49.064;9.290;2023-09-19T03:57:57;1.58;;;0.93;;
43152;SDS011;28756;49.064;9.290;2023-09-19T04:00:23;1.20;;;0.70;;
43152;SDS011;28756;49.064;9.290;2023-09-19T04:02:52;1.98;;;0.75;;
43152;SDS011;28756;49.064;9.290;2023-09-19T04:05:18;0.80;;;0.52;;
43152;SDS011;28756;49.064;9.290;2023-09-19T04:07:51;1.20;;;0.80;;
43152;SDS011;28756;49.064;9.290;2023-09-19T04:10:18;1.20;;;0.70;;
43152;SDS011;28756;49.064;9.290;2023-09-19T04:12:51;1.00;;;0.70;;
43152;SDS011;28756;49.064;9.290;2023-09-19T04:15:21;1.83;;;0.70;;
43152;SDS011;28756;49.064;9.290;2023-09-19T04:17:49;2.42;;;0.88;;
43152;SDS011;28756;49.064;9.290;2023-09-19T04:20:16;5.13;;;1.20;;
43152;SDS011;28756;49.064;9.290;2023-09-19T04:22:44;2.05;;;0.75;;
43152;SDS011;28756;49.064;9.290;2023-09-19T04:25:11;1.10;;;0.73;;
43152;SDS011;28756;49.064;9.290;2023-09-19T04:27:37;1.42;;;0.70;;
43152;SDS011;28756;49.064;9.290;2023-09-19T04:30:03;3.22;;;1.00;;
43152;SDS011;28756;49.064;9.290;2023-09-19T04:32:35;2.03;;;0.90;;
43152;SDS011;28756;49.064;9.290;2023-09-19T04:35:03;1.80;;;0.90;;
43152;SDS011;28756;49.064;9.290;2023-09-19T04:37:31;1.45;;;1.00;;
43152;SDS011;28756;49.064;9.290;2023-09-19T04:39:57;2.47;;;0.80;;
43152;SDS011;28756;49.064;9.290;2023-09-19T04:42:23;2.17;;;0.82;;
43152;SDS011;28756;49.064;9.290;2023-09-19T04:44:50;1.10;;;0.90;;
43152;SDS011;28756;49.064;9.290;2023-09-19T04:47:18;1.13;;;0.70;;
43152;SDS011;28756;49.064;9.290;2023-09-19T04:49:47;2.10;;;1.10;;
43152;SDS011;28756;49.064;9.290;2023-09-19T04:52:13;1.85;;;0.90;;
43152;SDS011;28756;49.064;9.290;2023-09-19T04:54:40;2.38;;;0.80;;
43152;SDS011;28756;49.064;9.290;2023-09-19T04:57:06;0.82;;;0.80;;
43152;SDS011;28756;49.064;9.290;2023-09-19T04:59:32;1.15;;;0.70;;
43152;SDS011;28756;49.064;9.290;2023-09-19T05:01:58;0.95;;;0.55;;
43152;SDS011;28756;49.064;9.290;2023-09-19T05:04:24;1.55;;;0.80;;
43152;SDS011;28756;49.064;9.290;2023-09-19T05:06:50;2.75;;;1.00;;
43152;SDS011;28756;49.064;9.290;2023-09-19T05:09:15;3.03;;;1.00;;
43152;SDS011;28756;49.064;9.290;2023-09-19T05:11:44;2.17;;;1.08;;
43152;SDS011;28756;49.064;9.290;2023-09-19T05:14:11;2.38;;;0.90;;
43152;SDS011;28756;49.064;9.290;2023-09-19T05:16:37;1.83;;;1.00;;
43152;SDS011;28756;49.064;9.290;2023-09-19T05:19:02;2.42;;;1.20;;
43152;SDS011;28756;49.064;9.290;2023-09-19T05:21:28;1.25;;;1.10;;
43152;SDS011;28756;49.064;9.290;2023-09-19T05:23:56;1.48;;;1.02;;
43152;SDS011;28756;49.064;9.290;2023-09-19T05:26:22;1.42;;;0.98;;
43152;SDS011;28756;49.064;9.290;2023-09-19T05:28:47;2.25;;;1.13;;
43152;SDS011;28756;49.064;9.290;2023-09-19T05:31:13;1.33;;;1.00;;
43152;SDS011;28756;49.064;9.290;2023-09-19T05:33:40;1.90;;;1.10;;
43152;SDS011;28756;49.064;9.290;2023-09-19T05:36:06;2.28;;;1.10;;
43152;SDS011;28756;49.064;9.290;2023-09-19T05:38:34;2.05;;;1.33;;
43152;SDS011;28756;49.064;9.290;2023-09-19T05:41:00;1.70;;;1.00;;
43152;SDS011;28756;49.064;9.290;2023-09-19T05:43:27;2.92;;;1.17;;
43152;SDS011;28756;49.064;9.290;2023-09-19T05:45:53;1.92;;;1.40;;
43152;SDS011;28756;49.064;9.290;2023-09-19T05:48:21;1.60;;;1.17;;
43152;SDS011;28756;49.064;9.290;2023-09-19T05:50:49;1.45;;;1.00;;
43152;SDS011;28756;49.064;9.290;2023-09-19T05:53:15;2.00;;;1.15;;
43152;SDS011;28756;49.064;9.290;2023-09-19T05:55:41;3.60;;;1.30;;
43152;SDS011;28756;49.064;9.290;2023-09-19T05:58:08;3.08;;;1.38;;
43152;SDS011;28756;49.064;9.290;2023-09-19T06:00:34;2.08;;;1.20;;
43152;SDS011;28756;49.064;9.290;2023-09-19T06:03:01;2.85;;;1.30;;
43152;SDS011;28756;49.064;9.290;2023-09-19T06:05:27;1.70;;;1.20;;
43152;SDS011;28756;49.064;9.290;2023-09-19T06:07:55;1.92;;;1.40;;
43152;SDS011;28756;49.064;9.290;2023-09-19T06:10:25;4.43;;;1.20;;
43152;SDS011;28756;49.064;9.290;2023-09-19T06:12:53;2.22;;;1.00;;
43152;SDS011;28756;49.064;9.290;2023-09-19T06:15:20;2.10;;;1.00;;
43152;SDS011;28756;49.064;9.290;2023-09-19T06:17:51;1.73;;;1.00;;
43152;SDS011;28756;49.064;9.290;2023-09-19T06:20:20;3.28;;;1.10;;
43152;SDS011;28756;49.064;9.290;2023-09-19T06:22:48;3.20;;;1.60;;
43152;SDS011;28756;49.064;9.290;2023-09-19T06:25:14;2.55;;;1.17;;
43152;SDS011;28756;49.064;9.290;2023-09-19T06:27:44;1.90;;;1.02;;
43152;SDS011;28756;49.064;9.290;2023-09-19T06:30:19;3.50;;;1.27;;
43152;SDS011;28756;49.064;9.290;2023-09-19T06:32:47;2.88;;;1.35;;
43152;SDS011;28756;49.064;9.290;2023-09-19T06:35:14;1.98;;;1.20;;
43152;SDS011;28756;49.064;9.290;2023-09-19T06:37:41;2.92;;;1.25;;
43152;SDS011;28756;49.064;9.290;2023-09-19T06:40:08;1.73;;;1.10;;
43152;SDS011;28756;49.064;9.290;2023-09-19T06:43:12;5.18;;;1.45;;
43152;SDS011;28756;49.064;9.290;2023-09-19T06:45:31;1.63;;;1.10;;
43152;SDS011;28756;49.064;9.290;2023-09-19T06:47:57;4.55;;;1.88;;
43152;SDS011;28756;49.064;9.290;2023-09-19T06:50:25;4.30;;;1.20;;
43152;SDS011;28756;49.064;9.290;2023-09-19T06:52:52;3.50;;;1.38;;
43152;SDS011;28756;49.064;9.290;2023-09-19T06:55:20;3.17;;;1.50;;
43152;SDS011;28756;49.064;9.290;2023-09-19T06:57:50;2.90;;;1.15;;
43152;SDS011;28756;49.064;9.290;2023-09-19T07:00:16;3.22;;;1.60;;
43152;SDS011;28756;49.064;9.290;2023-09-19T07:02:43;2.30;;;1.35;;
43152;SDS011;28756;49.064;9.290;2023-09-19T07:05:10;2.30;;;1.30;;
43152;SDS011;28756;49.064;9.290;2023-09-19T07:07:38;3.45;;;1.40;;
43152;SDS011;28756;49.064;9.290;2023-09-19T07:10:05;4.60;;;1.20;;
43152;SDS011;28756;49.064;9.290;2023-09-19T07:12:31;4.35;;;1.42;;
43152;SDS011;28756;49.064;9.290;2023-09-19T07:15:00;3.47;;;1.45;;
43152;SDS011;28756;49.064;9.290;2023-09-19T07:17:26;6.88;;;1.55;;
43152;SDS011;28756;49.064;9.290;2023-09-19T07:19:54;3.38;;;1.23;;
43152;SDS011;28756;49.064;9.290;2023-09-19T07:22:22;3.83;;;1.38;;
43152;SDS011;28756;49.064;9.290;2023-09-19T07:24:53;2.50;;;1.00;;
43152;SDS011;28756;49.064;9.290;2023-09-19T07:27:22;4.20;;;1.48;;
43152;SDS011;28756;49.064;9.290;2023-09-19T07:29:48;2.03;;;1.05;;
43152;SDS011;28756;49.064;9.290;2023-09-19T07:32:19;2.75;;;1.10;;
43152;SDS011;28756;49.064;9.290;2023-09-19T07:34:45;3.35;;;0.95;;
43152;SDS011;28756;49.064;9.290;2023-09-19T07:37:11;3.08;;;1.42;;
43152;SDS011;28756;49.064;9.290;2023-09-19T07:39:41;2.83;;;0.90;;
43152;SDS011;28756;49.064;9.290;2023-09-19T07:42:09;2.92;;;1.00;;
43152;SDS011;28756;49.064;9.290;2023-09-19T07:44:42;2.15;;;1.00;;
43152;SDS011;28756;49.064;9.290;2023-09-19T07:47:13;4.38;;;0.80;;
43152;SDS011;28756;49.064;9.290;2023-09-19T07:49:39;2.17;;;0.85;;
43152;SDS011;28756;49.064;9.290;2023-09-19T07:52:05;1.33;;;0.85;;
43152;SDS011;28756;49.064;9.290;2023-09-19T07:54:32;1.75;;;0.80;;
43152;SDS011;28756;49.064;9.290;2023-09-19T07:57:00;1.83;;;0.80;;
43152;SDS011;28756;49.064;9.290;2023-09-19T07:59:27;2.75;;;0.93;;
43152;SDS011;28756;49.064;9.290;2023-09-19T08:01:53;0.93;;;0.60;;
43152;SDS011;28756;49.064;9.290;2023-09-19T08:04:19;4.70;;;1.40;;
43152;SDS011;28756;49.064;9.290;2023-09-19T08:06:44;2.88;;;0.70;;
43152;SDS011;28756;49.064;9.290;2023-09-19T08:09:10;2.00;;;0.70;;
43152;SDS011;28756;49.064;9.290;2023-09-19T08:11:39;3.85;;;1.00;;
43152;SDS011;28756;49.064;9.290;2023-09-19T08:14:05;2.80;;;0.90;;
43152;SDS011;28756;49.064;9.290;2023-09-19T08:16:33;2.00;;;0.80;;
43152;SDS011;28756;49.064;9.290;2023-09-19T08:18:59;1.52;;;0.85;;
43152;SDS011;28756;49.064;9.290;2023-09-19T08:21:24;1.50;;;0.70;;
43152;SDS011;28756;49.064;9.290;2023-09-19T08:23:52;2.60;;;0.90;;
43152;SDS011;28756;49.064;9.290;2023-09-19T08:26:18;2.55;;;0.90;;
43152;SDS011;28756;49.064;9.290;2023-09-19T08:28:44;2.55;;;0.95;;
43152;SDS011;28756;49.064;9.290;2023-09-19T08:31:10;1.42;;;0.60;;
43152;SDS011;28756;49.064;9.290;2023-09-19T08:33:36;2.50;;;0.85;;
43152;SDS011;28756;49.064;9.290;2023-09-19T08:36:02;3.65;;;1.30;;
43152;SDS011;28756;49.064;9.290;2023-09-19T08:38:33;1.20;;;0.75;;
43152;SDS011;28756;49.064;9.290;2023-09-19T08:41:00;3.20;;;0.98;;
43152;SDS011;28756;49.064;9.290;2023-09-19T08:43:31;2.10;;;0.82;;
43152;SDS011;28756;49.064;9.290;2023-09-19T08:46:10;2.55;;;0.98;;
43152;SDS011;28756;49.064;9.290;2023-09-19T08:48:39;2.33;;;1.13;;
43152;SDS011;28756;49.064;9.290;2023-09-19T08:51:26;1.65;;;0.80;;
43152;SDS011;28756;49.064;9.290;2023-09-19T08:54:06;1.88;;;0.95;;
43152;SDS011;28756;49.064;9.290;2023-09-19T08:56:33;4.05;;;0.73;;
43152;SDS011;28756;49.064;9.290;2023-09-19T08:59:05;1.65;;;0.80;;
43152;SDS011;28756;49.064;9.290;2023-09-19T09:01:34;2.35;;;0.93;;
43152;SDS011;28756;49.064;9.290;2023-09-19T09:04:01;2.85;;;1.10;;
43152;SDS011;28756;49.064;9.290;2023-09-19T09:06:28;2.92;;;0.80;;
43152;SDS011;28756;49.064;9.290;2023-09-19T09:08:55;1.92;;;0.80;;
43152;SDS011;28756;49.064;9.290;2023-09-19T09:11:21;3.53;;;0.85;;
43152;SDS011;28756;49.064;9.290;2023-09-19T09:13:49;1.95;;;0.90;;
43152;SDS011;28756;49.064;9.290;2023-09-19T09:16:16;1.90;;;0.70;;
43152;SDS011;28756;49.064;9.290;2023-09-19T09:18:45;2.17;;;0.90;;
43152;SDS011;28756;49.064;9.290;2023-09-19T09:21:12;1.90;;;0.70;;
43152;SDS011;28756;49.064;9.290;2023-09-19T09:23:41;3.45;;;0.88;;
43152;SDS011;28756;49.064;9.290;2023-09-19T09:26:07;3.03;;;1.00;;
43152;SDS011;28756;49.064;9.290;2023-09-19T09:28:34;1.98;;;0.68;;
43152;SDS011;28756;49.064;9.290;2023-09-19T09:31:03;1.10;;;0.70;;
43152;SDS011;28756;49.064;9.290;2023-09-19T09:33:52;1.67;;;0.70;;
43152;SDS011;28756;49.064;9.290;2023-09-19T09:36:33;1.77;;;0.85;;
43152;SDS011;28756;49.064;9.290;2023-09-19T09:39:04;1.73;;;0.60;;
43152;SDS011;28756;49.064;9.290;2023-09-19T09:41:49;2.38;;;0.75;;
43152;SDS011;28756;49.064;9.290;2023-09-19T09:44:18;3.15;;;0.82;;
43152;SDS011;28756;49.064;9.290;2023-09-19T09:46:47;2.53;;;0.73;;
43152;SDS011;28756;49.064;9.290;2023-09-19T09:49:23;1.63;;;0.77;;
43152;SDS011;28756;49.064;9.290;2023-09-19T09:52:12;2.15;;;0.80;;
43152;SDS011;28756;49.064;9.290;2023-09-19T09:55:04;1.38;;;0.70;;
43152;SDS011;28756;49.064;9.290;2023-09-19T09:57:33;4.75;;;0.80;;
43152;SDS011;28756;49.064;9.290;2023-09-19T09:59:59;2.00;;;0.77;;
43152;SDS011;28756;49.064;9.290;2023-09-19T10:02:36;2.95;;;0.73;;
43152;SDS011;28756;49.064;9.290;2023-09-19T10:05:11;3.08;;;0.80;;
43152;SDS011;28756;49.064;9.290;2023-09-19T10:07:47;1.70;;;0.70;;
43152;SDS011;28756;49.064;9.290;2023-09-19T10:13:09;1.33;;;0.55;;
43152;SDS011;28756;49.064;9.290;2023-09-19T10:15:50;1.67;;;0.80;;
43152;SDS011;28756;49.064;9.290;2023-09-19T10:18:23;2.47;;;0.90;;
43152;SDS011;28756;49.064;9.290;2023-09-19T10:20:54;2.20;;;0.82;;
43152;SDS011;28756;49.064;9.290;2023-09-19T10:23:24;2.25;;;0.80;;
43152;SDS011;28756;49.064;9.290;2023-09-19T10:25:55;1.38;;;0.90;;
43152;SDS011;28756;49.064;9.290;2023-09-19T10:28:23;2.10;;;0.90;;
43152;SDS011;28756;49.064;9.290;2023-09-19T10:31:00;1.40;;;0.70;;
43152;SDS011;28756;49.064;9.290;2023-09-19T10:33:26;2.17;;;0.77;;
43152;SDS011;28756;49.064;9.290;2023-09-19T10:36:02;2.97;;;0.85;;
43152;SDS011;28756;49.064;9.290;2023-09-19T10:38:30;4.53;;;0.93;;
43152;SDS011;28756;49.064;9.290;2023-09-19T10:40:58;1.38;;;0.77;;
43152;SDS011;28756;49.064;9.290;2023-09-19T10:43:26;2.25;;;0.80;;
43152;SDS011;28756;49.064;9.290;2023-09-19T10:45:57;1.42;;;0.85;;
43152;SDS011;28756;49.064;9.290;2023-09-19T10:48:34;1.73;;;0.75;;
43152;SDS011;28756;49.064;9.290;2023-09-19T10:53:31;4.20;;;0.80;;
43152;SDS011;28756;49.064;9.290;2023-09-19T10:56:42;1.98;;;0.80;;
43152;SDS011;28756;49.064;9.290;2023-09-19T10:59:20;2.35;;;0.80;;
43152;SDS011;28756;49.064;9.290;2023-09-19T11:01:50;2.40;;;0.98;;
43152;SDS011;28756;49.064;9.290;2023-09-19T11:04:34;2.40;;;0.65;;
43152;SDS011;28756;49.064;9.290;2023-09-19T11:09:42;3.40;;;1.10;;
43152;SDS011;28756;49.064;9.290;2023-09-19T11:12:12;1.92;;;0.90;;
43152;SDS011;28756;49.064;9.290;2023-09-19T11:14:58;3.00;;;0.80;;
43152;SDS011;28756;49.064;9.290;2023-09-19T11:17:31;2.00;;;0.60;;
43152;SDS011;28756;49.064;9.290;2023-09-19T11:30:34;1.20;;;0.50;;
43152;SDS011;28756;49.064;9.290;2023-09-19T11:47:02;1.73;;;0.80;;
43152;SDS011;28756;49.064;9.290;2023-09-19T11:49:31;0.90;;;0.70;;
43152;SDS011;28756;49.064;9.290;2023-09-19T11:52:01;1.08;;;0.80;;
43152;SDS011;28756;49.064;9.290;2023-09-19T11:54:37;1.45;;;0.70;;
43152;SDS011;28756;49.064;9.290;2023-09-19T11:57:09;1.67;;;0.70;;
43152;SDS011;28756;49.064;9.290;2023-09-19T11:59:45;2.25;;;0.85;;
43152;SDS011;28756;49.064;9.290;2023-09-19T12:02:13;1.17;;;0.65;;
43152;SDS011;28756;49.064;9.290;2023-09-19T12:05:12;0.90;;;0.63;;
43152;SDS011;28756;49.064;9.290;2023-09-19T12:07:43;3.10;;;0.90;;
43152;SDS011;28756;49.064;9.290;2023-09-19T12:10:13;1.73;;;0.80;;
43152;SDS011;28756;49.064;9.290;2023-09-19T12:12:49;1.55;;;0.70;;
43152;SDS011;28756;49.064;9.290;2023-09-19T12:15:25;1.88;;;0.60;;
43152;SDS011;28756;49.064;9.290;2023-09-19T12:17:53;3.90;;;0.70;;
43152;SDS011;28756;49.064;9.290;2023-09-19T12:20:19;2.58;;;0.98;;
43152;SDS011;28756;49.064;9.290;2023-09-19T12:22:48;1.75;;;0.80;;
43152;SDS011;28756;49.064;9.290;2023-09-19T12:25:19;3.55;;;0.98;;
43152;SDS011;28756;49.064;9.290;2023-09-19T12:27:50;3.72;;;1.00;;
43152;SDS011;28756;49.064;9.290;2023-09-19T12:30:21;2.13;;;0.90;;
43152;SDS011;28756;49.064;9.290;2023-09-19T12:32:53;2.10;;;0.80;;
43152;SDS011;28756;49.064;9.290;2023-09-19T12:35:27;1.50;;;0.73;;
43152;SDS011;28756;49.064;9.290;2023-09-19T12:37:55;1.23;;;0.70;;
43152;SDS011;28756;49.064;9.290;2023-09-19T12:40:23;1.75;;;0.88;;
43152;SDS011;28756;49.064;9.290;2023-09-19T12:42:57;2.17;;;0.82;;
43152;SDS011;28756;49.064;9.290;2023-09-19T12:45:27;2.35;;;0.95;;
43152;SDS011;28756;49.064;9.290;2023-09-19T12:53:44;2.13;;;0.73;;
43152;SDS011;28756;49.064;9.290;2023-09-19T12:56:14;1.90;;;0.98;;
43152;SDS011;28756;49.064;9.290;2023-09-19T12:58:52;2.00;;;1.05;;
43152;SDS011;28756;49.064;9.290;2023-09-19T13:01:19;1.98;;;0.90;;
43152;SDS011;28756;49.064;9.290;2023-09-19T13:04:10;3.50;;;1.00;;
43152;SDS011;28756;49.064;9.290;2023-09-19T13:06:42;2.10;;;1.00;;
43152;SDS011;28756;49.064;9.290;2023-09-19T13:09:12;1.83;;;0.85;;
43152;SDS011;28756;49.064;9.290;2023-09-19T13:11:40;1.58;;;0.80;;
43152;SDS011;28756;49.064;9.290;2023-09-19T13:19:35;1.38;;;0.90;;
43152;SDS011;28756;49.064;9.290;2023-09-19T13:22:02;1.17;;;0.75;;
43152;SDS011;28756;49.064;9.290;2023-09-19T13:24:50;1.65;;;0.80;;
43152;SDS011;28756;49.064;9.290;2023-09-19T13:27:16;3.40;;;0.60;;
43152;SDS011;28756;49.064;9.290;2023-09-19T13:29:42;2.38;;;0.80;;
43152;SDS011;28756;49.064;9.290;2023-09-19T13:32:08;1.30;;;0.85;;
43152;SDS011;28756;49.064;9.290;2023-09-19T13:34:36;1.83;;;1.15;;
43152;SDS011;28756;49.064;9.290;2023-09-19T13:37:02;1.88;;;0.90;;
43152;SDS011;28756;49.064;9.290;2023-09-19T13:39:29;1.38;;;0.82;;
43152;SDS011;28756;49.064;9.290;2023-09-19T13:41:55;1.05;;;0.80;;
43152;SDS011;28756;49.064;9.290;2023-09-19T13:44:21;1.88;;;0.80;;
43152;SDS011;28756;49.064;9.290;2023-09-19T13:46:49;1.20;;;0.80;;
43152;SDS011;28756;49.064;9.290;2023-09-19T13:49:16;1.42;;;0.70;;
43152;SDS011;28756;49.064;9.290;2023-09-19T13:51:42;1.45;;;0.82;;
43152;SDS011;28756;49.064;9.290;2023-09-19T13:54:08;1.50;;;0.80;;
43152;SDS011;28756;49.064;9.290;2023-09-19T13:56:40;1.52;;;0.80;;
43152;SDS011;28756;49.064;9.290;2023-09-19T13:59:06;2.38;;;0.70;;
43152;SDS011;28756;49.064;9.290;2023-09-19T14:01:33;1.00;;;0.60;;
43152;SDS011;28756;49.064;9.290;2023-09-19T14:04:01;1.10;;;0.70;;
43152;SDS011;28756;49.064;9.290;2023-09-19T14:06:27;4.05;;;1.30;;
43152;SDS011;28756;49.064;9.290;2023-09-19T14:08:53;1.52;;;0.85;;
43152;SDS011;28756;49.064;9.290;2023-09-19T14:11:19;1.25;;;0.77;;
43152;SDS011;28756;49.064;9.290;2023-09-19T14:13:47;2.38;;;0.70;;
43152;SDS011;28756;49.064;9.290;2023-09-19T14:16:16;1.17;;;0.90;;
43152;SDS011;28756;49.064;9.290;2023-09-19T14:18:44;1.95;;;1.00;;
43152;SDS011;28756;49.064;9.290;2023-09-19T14:21:11;1.58;;;0.80;;
43152;SDS011;28756;49.064;9.290;2023-09-19T14:23:40;1.27;;;0.73;;
43152;SDS011;28756;49.064;9.290;2023-09-19T14:26:07;2.08;;;1.00;;
43152;SDS011;28756;49.064;9.290;2023-09-19T14:28:34;1.55;;;0.90;;
43152;SDS011;28756;49.064;9.290;2023-09-19T14:31:03;2.25;;;0.77;;
43152;SDS011;28756;49.064;9.290;2023-09-19T14:33:33;2.17;;;0.80;;
43152;SDS011;28756;49.064;9.290;2023-09-19T14:36:03;2.33;;;0.95;;
43152;SDS011;28756;49.064;9.290;2023-09-19T14:38:35;1.48;;;0.80;;
43152;SDS011;28756;49.064;9.290;2023-09-19T14:41:02;2.72;;;0.90;;
43152;SDS011;28756;49.064;9.290;2023-09-19T14:43:29;2.05;;;1.00;;
43152;SDS011;28756;49.064;9.290;2023-09-19T14:45:57;1.38;;;0.88;;
43152;SDS011;28756;49.064;9.290;2023-09-19T14:48:28;0.90;;;0.60;;
43152;SDS011;28756;49.064;9.290;2023-09-19T14:51:01;1.20;;;0.63;;
43152;SDS011;28756;49.064;9.290;2023-09-19T14:53:28;2.08;;;1.20;;
43152;SDS011;28756;49.064;9.290;2023-09-19T14:56:03;2.45;;;0.70;;
43152;SDS011;28756;49.064;9.290;2023-09-19T14:58:30;1.33;;;0.75;;
43152;SDS011;28756;49.064;9.290;2023-09-19T15:03:38;1.55;;;0.68;;
43152;SDS011;28756;49.064;9.290;2023-09-19T15:06:06;2.00;;;0.80;;
43152;SDS011;28756;49.064;9.290;2023-09-19T15:08:39;1.60;;;0.75;;
43152;SDS011;28756;49.064;9.290;2023-09-19T15:11:11;1.75;;;0.70;;
43152;SDS011;28756;49.064;9.290;2023-09-19T15:13:56;1.63;;;1.00;;
43152;SDS011;28756;49.064;9.290;2023-09-19T15:16:24;2.45;;;0.80;;
43152;SDS011;28756;49.064;9.290;2023-09-19T15:18:50;1.75;;;0.85;;
43152;SDS011;28756;49.064;9.290;2023-09-19T15:21:17;1.73;;;0.80;;
43152;SDS011;28756;49.064;9.290;2023-09-19T15:23:43;0.80;;;0.63;;
43152;SDS011;28756;49.064;9.290;2023-09-19T15:26:14;1.30;;;0.60;;
43152;SDS011;28756;49.064;9.290;2023-09-19T15:28:45;1.40;;;0.80;;
43152;SDS011;28756;49.064;9.290;2023-09-19T15:31:12;1.73;;;0.90;;
43152;SDS011;28756;49.064;9.290;2023-09-19T15:33:38;2.38;;;0.80;;
43152;SDS011;28756;49.064;9.290;2023-09-19T15:36:05;1.00;;;0.52;;
43152;SDS011;28756;49.064;9.290;2023-09-19T15:38:55;1.05;;;0.80;;
43152;SDS011;28756;49.064;9.290;2023-09-19T15:41:31;1.02;;;0.70;;
43152;SDS011;28756;49.064;9.290;2023-09-19T15:43:59;1.58;;;0.80;;
43152;SDS011;28756;49.064;9.290;2023-09-19T15:46:31;0.80;;;0.60;;
43152;SDS011;28756;49.064;9.290;2023-09-19T15:49:03;1.13;;;0.63;;
43152;SDS011;28756;49.064;9.290;2023-09-19T15:51:29;2.78;;;0.60;;
43152;SDS011;28756;49.064;9.290;2023-09-19T15:53:56;0.80;;;0.63;;
43152;SDS011;28756;49.064;9.290;2023-09-19T15:56:27;1.55;;;0.70;;
43152;SDS011;28756;49.064;9.290;2023-09-19T15:58:53;1.25;;;0.50;;
43152;SDS011;28756;49.064;9.290;2023-09-19T16:01:20;1.88;;;0.80;;
43152;SDS011;28756;49.064;9.290;2023-09-19T16:03:48;1.98;;;0.70;;
43152;SDS011;28756;49.064;9.290;2023-09-19T16:06:21;1.13;;;0.68;;
43152;SDS011;28756;49.064;9.290;2023-09-19T16:08:58;1.50;;;0.68;;
43152;SDS011;28756;49.064;9.290;2023-09-19T16:11:25;0.80;;;0.60;;